createdAt,value
2017-09-12T00:00:01.516Z,2.40
2017-09-12T00:00:05.758Z,2.40
2017-09-12T00:00:10.005Z,2.40
2017-09-12T00:00:14.985Z,2.30
2017-09-12T00:00:19.216Z,2.27
2017-09-12T00:00:24.208Z,2.30
2017-09-12T00:00:28.444Z,2.30
2017-09-12T00:00:32.702Z,2.40
2017-09-12T00:00:36.928Z,2.35
2017-09-12T00:00:41.941Z,2.30
2017-09-12T00:00:47.016Z,2.40
2017-09-12T00:00:51.234Z,2.33
2017-09-12T00:00:55.486Z,2.27
2017-09-12T00:01:00.502Z,2.25
2017-09-12T00:01:04.730Z,2.27
2017-09-12T00:01:08.956Z,2.45
2017-09-12T00:01:13.222Z,2.50
2017-09-12T00:01:18.180Z,2.60
2017-09-12T00:01:22.426Z,2.60
2017-09-12T00:01:26.674Z,2.70
2017-09-12T00:01:30.916Z,2.75
2017-09-12T00:01:35.900Z,2.73
2017-09-12T00:01:40.141Z,2.80
2017-09-12T00:01:44.370Z,2.75
2017-09-12T00:01:48.610Z,2.80
2017-09-12T00:01:52.847Z,2.90
2017-09-12T00:01:57.082Z,2.90
2017-09-12T00:02:01.325Z,2.90
2017-09-12T00:02:06.317Z,2.85
2017-09-12T00:02:10.558Z,2.70
2017-09-12T00:02:14.786Z,2.70
2017-09-12T00:02:19.025Z,2.60
2017-09-12T00:02:23.254Z,2.60
2017-09-12T00:02:27.477Z,2.60
2017-09-12T00:02:31.708Z,2.60
2017-09-12T00:02:35.949Z,2.50
2017-09-12T00:02:40.952Z,2.60
2017-09-12T00:02:45.955Z,2.53
2017-09-12T00:02:50.179Z,2.40
2017-09-12T00:02:55.194Z,2.50
2017-09-12T00:03:00.183Z,2.50
2017-09-12T00:03:04.435Z,2.60
2017-09-12T00:03:08.664Z,2.50
2017-09-12T00:03:12.918Z,2.50
2017-09-12T00:03:17.930Z,2.40
2017-09-12T00:03:22.947Z,2.40
2017-09-12T00:03:27.940Z,2.40
2017-09-12T00:03:32.192Z,2.40
2017-09-12T00:03:36.408Z,2.40
2017-09-12T00:03:40.651Z,2.33
2017-09-12T00:03:44.875Z,2.30
2017-09-12T00:03:49.111Z,2.30
2017-09-12T00:03:53.397Z,2.30
2017-09-12T00:03:57.635Z,2.40
2017-09-12T00:04:01.864Z,2.50
2017-09-12T00:04:06.871Z,2.40
2017-09-12T00:04:11.117Z,2.40
2017-09-12T00:04:15.409Z,2.40
2017-09-12T00:04:19.651Z,2.50
2017-09-12T00:04:23.881Z,2.35
2017-09-12T00:04:28.881Z,2.30
2017-09-12T00:04:33.100Z,2.30
2017-09-12T00:04:38.107Z,2.40
2017-09-12T00:04:43.128Z,2.40
2017-09-12T00:04:47.359Z,2.50
2017-09-12T00:04:51.611Z,2.40
2017-09-12T00:04:55.859Z,2.30
2017-09-12T00:05:00.097Z,2.20
2017-09-12T00:05:04.339Z,2.10
2017-09-12T00:05:09.346Z,2.10
2017-09-12T00:05:14.354Z,2.10
2017-09-12T00:05:18.580Z,2.13
2017-09-12T00:05:22.826Z,2.30
2017-09-12T00:05:27.948Z,2.35
2017-09-12T00:05:32.200Z,2.40
2017-09-12T00:05:36.440Z,2.30
2017-09-12T00:05:40.664Z,2.30
2017-09-12T00:05:44.903Z,2.30
2017-09-12T00:05:49.121Z,2.40
2017-09-12T00:05:53.403Z,2.50
2017-09-12T00:05:57.655Z,2.60
2017-09-12T00:06:01.886Z,2.50
2017-09-12T00:06:06.887Z,2.53
2017-09-12T00:06:11.120Z,2.60
2017-09-12T00:06:15.357Z,2.55
2017-09-12T00:06:19.608Z,2.50
2017-09-12T00:06:24.611Z,2.45
2017-09-12T00:06:28.840Z,2.50
2017-09-12T00:06:33.081Z,2.50
2017-09-12T00:06:37.300Z,2.60
2017-09-12T00:06:41.543Z,2.60
2017-09-12T00:06:45.789Z,2.55
2017-09-12T00:06:50.009Z,2.50
2017-09-12T00:06:55.022Z,2.45
2017-09-12T00:06:59.255Z,2.47
2017-09-12T00:07:03.480Z,2.60
2017-09-12T00:07:07.704Z,2.60
2017-09-12T00:07:11.941Z,2.60
2017-09-12T00:07:16.940Z,2.60
2017-09-12T00:07:21.175Z,2.60
2017-09-12T00:07:25.415Z,2.60
2017-09-12T00:07:29.657Z,2.50
2017-09-12T00:07:34.675Z,2.40
2017-09-12T00:07:39.700Z,2.40
2017-09-12T00:07:43.938Z,2.30
2017-09-12T00:07:48.156Z,2.30
2017-09-12T00:07:52.392Z,2.30
2017-09-12T00:07:56.634Z,2.30
2017-09-12T00:08:00.881Z,2.20
2017-09-12T00:08:05.112Z,2.25
2017-09-12T00:08:09.347Z,2.30
2017-09-12T00:08:13.590Z,2.30
2017-09-12T00:08:18.598Z,2.30
2017-09-12T00:08:23.600Z,2.23
2017-09-12T00:08:27.860Z,2.37
2017-09-12T00:08:32.078Z,2.40
2017-09-12T00:08:36.292Z,2.50
2017-09-12T00:08:41.311Z,2.50
2017-09-12T00:08:45.579Z,2.50
2017-09-12T00:08:49.805Z,2.50
2017-09-12T00:08:54.062Z,2.60
2017-09-12T00:08:58.255Z,2.70
2017-09-12T00:09:02.510Z,2.63
2017-09-12T00:09:06.733Z,2.60
2017-09-12T00:09:11.743Z,2.65
2017-09-12T00:09:15.990Z,2.60
2017-09-12T00:09:20.225Z,2.70
2017-09-12T00:09:24.448Z,2.60
2017-09-12T00:09:29.470Z,2.60
2017-09-12T00:09:34.469Z,2.60
2017-09-12T00:09:38.706Z,2.50
2017-09-12T00:09:42.934Z,2.50
2017-09-12T00:09:47.160Z,2.57
2017-09-12T00:09:51.412Z,2.60
2017-09-12T00:09:55.636Z,2.50
2017-09-12T00:09:59.878Z,2.50
2017-09-12T00:10:04.105Z,2.47
2017-09-12T00:10:08.343Z,2.40
2017-09-12T00:10:12.578Z,2.45
2017-09-12T00:10:17.577Z,2.50
2017-09-12T00:10:21.808Z,2.40
2017-09-12T00:10:26.818Z,2.50
2017-09-12T00:10:31.809Z,2.47
2017-09-12T00:10:36.048Z,2.50
2017-09-12T00:10:40.281Z,2.50
2017-09-12T00:10:44.531Z,2.50
2017-09-12T00:10:48.759Z,2.60
2017-09-12T00:10:53.006Z,2.60
2017-09-12T00:10:57.228Z,2.60
2017-09-12T00:11:02.234Z,2.60
2017-09-12T00:11:06.497Z,2.60
2017-09-12T00:11:10.724Z,2.50
2017-09-12T00:11:14.973Z,2.50
2017-09-12T00:11:19.986Z,2.55
2017-09-12T00:11:24.999Z,2.57
2017-09-12T00:11:30.013Z,2.40
2017-09-12T00:11:35.023Z,2.50
2017-09-12T00:11:40.059Z,2.40
2017-09-12T00:11:44.280Z,2.50
2017-09-12T00:11:48.526Z,2.50
2017-09-12T00:11:52.779Z,2.50
2017-09-12T00:11:57.021Z,2.50
2017-09-12T00:12:01.254Z,2.60
2017-09-12T00:12:06.263Z,2.60
2017-09-12T00:12:11.258Z,2.70
2017-09-12T00:12:15.534Z,2.70
2017-09-12T00:12:19.787Z,2.70
2017-09-12T00:12:24.987Z,2.80
2017-09-12T00:12:29.212Z,2.90
2017-09-12T00:12:33.458Z,2.90
2017-09-12T00:12:37.710Z,3.25
2017-09-12T00:12:42.715Z,3.25
2017-09-12T00:12:47.722Z,3.13
2017-09-12T00:12:51.981Z,3.07
2017-09-12T00:12:56.223Z,2.90
2017-09-12T00:13:00.461Z,2.87
2017-09-12T00:13:04.676Z,2.90
2017-09-12T00:13:08.914Z,2.90
2017-09-12T00:13:13.140Z,2.90
2017-09-12T00:13:18.145Z,2.90
2017-09-12T00:13:22.377Z,2.90
2017-09-12T00:13:26.601Z,2.80
2017-09-12T00:13:30.847Z,2.90
2017-09-12T00:13:35.091Z,2.90
2017-09-12T00:13:39.320Z,2.50
2017-09-12T00:13:43.548Z,2.50
2017-09-12T00:13:48.550Z,2.60
2017-09-12T00:13:52.790Z,2.60
2017-09-12T00:13:57.012Z,2.70
2017-09-12T00:14:01.253Z,2.70
2017-09-12T00:14:05.480Z,2.60
2017-09-12T00:14:09.720Z,2.65
2017-09-12T00:14:13.942Z,2.65
2017-09-12T00:14:18.182Z,2.80
2017-09-12T00:14:22.412Z,2.80
2017-09-12T00:14:26.643Z,2.80
2017-09-12T00:14:30.878Z,2.70
2017-09-12T00:14:35.107Z,2.60
2017-09-12T00:14:39.342Z,2.60
2017-09-12T00:14:43.572Z,2.60
2017-09-12T00:14:47.796Z,2.50
2017-09-12T00:14:52.032Z,2.60
2017-09-12T00:14:56.274Z,2.60
2017-09-12T00:15:00.495Z,2.70
2017-09-12T00:15:04.725Z,2.70
2017-09-12T00:15:08.952Z,2.70
2017-09-12T00:15:13.952Z,2.60
2017-09-12T00:15:18.199Z,2.53
2017-09-12T00:15:22.438Z,2.60
2017-09-12T00:15:26.671Z,2.60
2017-09-12T00:15:31.660Z,2.67
2017-09-12T00:15:35.896Z,2.80
2017-09-12T00:15:40.912Z,2.80
2017-09-12T00:15:45.919Z,2.83
2017-09-12T00:15:50.140Z,2.73
2017-09-12T00:15:54.385Z,2.70
2017-09-12T00:15:58.637Z,2.60
2017-09-12T00:16:03.629Z,2.70
2017-09-12T00:16:07.865Z,2.60
2017-09-12T00:16:12.110Z,2.60
2017-09-12T00:16:16.346Z,2.60
2017-09-12T00:16:21.344Z,2.63
2017-09-12T00:16:25.573Z,2.70
2017-09-12T00:16:30.594Z,2.60
2017-09-12T00:16:34.820Z,2.50
2017-09-12T00:16:39.043Z,2.40
2017-09-12T00:16:43.282Z,2.40
2017-09-12T00:16:48.295Z,2.40
2017-09-12T00:16:53.301Z,2.40
2017-09-12T00:16:57.551Z,2.30
2017-09-12T00:17:01.792Z,2.30
2017-09-12T00:17:06.035Z,2.30
2017-09-12T00:17:10.269Z,2.30
2017-09-12T00:17:14.518Z,2.30
2017-09-12T00:17:19.522Z,2.30
2017-09-12T00:17:23.760Z,2.20
2017-09-12T00:17:27.985Z,2.30
2017-09-12T00:17:32.246Z,2.23
2017-09-12T00:17:36.497Z,2.30
2017-09-12T00:17:40.719Z,2.20
2017-09-12T00:17:44.964Z,2.30
2017-09-12T00:17:49.200Z,2.30
2017-09-12T00:17:53.437Z,2.40
2017-09-12T00:17:57.665Z,2.40
2017-09-12T00:18:01.911Z,2.40
2017-09-12T00:18:06.146Z,2.30
2017-09-12T00:18:10.387Z,2.35
2017-09-12T00:18:14.626Z,2.30
2017-09-12T00:18:19.634Z,2.30
2017-09-12T00:18:23.860Z,2.30
2017-09-12T00:18:28.093Z,2.30
2017-09-12T00:18:32.320Z,2.30
2017-09-12T00:18:36.558Z,2.40
2017-09-12T00:18:40.791Z,2.50
2017-09-12T00:18:45.076Z,2.60
2017-09-12T00:18:49.330Z,2.65
2017-09-12T00:18:53.526Z,2.70
2017-09-12T00:18:57.756Z,2.70
2017-09-12T00:19:01.997Z,2.83
2017-09-12T00:19:06.229Z,2.90
2017-09-12T00:19:10.479Z,2.95
2017-09-12T00:19:14.696Z,3.10
2017-09-12T00:19:18.935Z,3.10
2017-09-12T00:19:23.941Z,3.10
2017-09-12T00:19:28.170Z,3.00
2017-09-12T00:19:33.156Z,3.00
2017-09-12T00:19:37.389Z,3.00
2017-09-12T00:19:41.616Z,2.90
2017-09-12T00:19:45.881Z,2.80
2017-09-12T00:19:50.891Z,2.80
2017-09-12T00:19:55.889Z,2.70
2017-09-12T00:20:00.228Z,2.70
2017-09-12T00:20:05.234Z,2.70
2017-09-12T00:20:10.230Z,2.67
2017-09-12T00:20:14.464Z,2.60
2017-09-12T00:20:18.731Z,2.77
2017-09-12T00:20:22.971Z,2.80
2017-09-12T00:20:27.184Z,2.85
2017-09-12T00:20:31.482Z,2.90
2017-09-12T00:20:35.744Z,2.80
2017-09-12T00:20:39.953Z,2.80
2017-09-12T00:20:45.327Z,2.95
2017-09-12T00:20:49.554Z,2.95
2017-09-12T00:20:53.780Z,3.00
2017-09-12T00:20:58.780Z,3.00
2017-09-12T00:21:03.005Z,2.93
2017-09-12T00:21:07.243Z,3.10
2017-09-12T00:21:11.491Z,3.10
2017-09-12T00:21:16.488Z,3.10
2017-09-12T00:21:20.726Z,3.00
2017-09-12T00:21:24.963Z,3.10
2017-09-12T00:21:29.198Z,3.10
2017-09-12T00:21:33.432Z,3.10
2017-09-12T00:21:37.666Z,3.10
2017-09-12T00:21:41.893Z,3.10
2017-09-12T00:21:46.893Z,3.05
2017-09-12T00:21:51.134Z,3.00
2017-09-12T00:21:56.141Z,3.00
2017-09-12T00:22:01.155Z,3.00
2017-09-12T00:22:05.394Z,2.83
2017-09-12T00:22:09.616Z,3.00
2017-09-12T00:22:13.857Z,3.05
2017-09-12T00:22:18.858Z,3.00
2017-09-12T00:22:23.083Z,2.83
2017-09-12T00:22:27.342Z,2.80
2017-09-12T00:22:31.591Z,2.90
2017-09-12T00:22:35.830Z,2.90
2017-09-12T00:22:40.062Z,2.90
2017-09-12T00:22:44.307Z,2.85
2017-09-12T00:22:48.525Z,2.90
2017-09-12T00:22:52.794Z,2.85
2017-09-12T00:22:57.040Z,2.80
2017-09-12T00:23:01.285Z,2.75
2017-09-12T00:23:06.281Z,2.80
2017-09-12T00:23:10.518Z,2.60
2017-09-12T00:23:14.740Z,2.60
2017-09-12T00:23:19.016Z,2.70
2017-09-12T00:23:23.256Z,2.60
2017-09-12T00:23:27.485Z,2.50
2017-09-12T00:23:32.484Z,2.50
2017-09-12T00:23:36.712Z,2.40
2017-09-12T00:23:41.708Z,2.40
2017-09-12T00:23:45.975Z,2.40
2017-09-12T00:23:50.201Z,2.40
2017-09-12T00:23:54.431Z,2.40
2017-09-12T00:23:59.419Z,2.50
2017-09-12T00:24:03.679Z,2.58
2017-09-12T00:24:07.928Z,2.60
2017-09-12T00:24:12.171Z,2.50
2017-09-12T00:24:16.401Z,2.50
2017-09-12T00:24:20.624Z,2.40
2017-09-12T00:24:24.903Z,2.50
2017-09-12T00:24:29.138Z,2.60
2017-09-12T00:24:34.133Z,2.60
2017-09-12T00:24:38.356Z,2.60
2017-09-12T00:24:43.349Z,2.57
2017-09-12T00:24:47.585Z,2.70
2017-09-12T00:24:51.830Z,2.60
2017-09-12T00:24:56.833Z,2.55
2017-09-12T00:25:01.056Z,2.60
2017-09-12T00:25:05.295Z,2.50
2017-09-12T00:25:10.277Z,2.43
2017-09-12T00:25:14.530Z,2.47
2017-09-12T00:25:18.766Z,2.40
2017-09-12T00:25:23.014Z,2.40
2017-09-12T00:25:28.006Z,2.30
2017-09-12T00:25:32.246Z,2.20
2017-09-12T00:25:36.499Z,2.20
2017-09-12T00:25:40.747Z,2.25
2017-09-12T00:25:44.986Z,2.15
2017-09-12T00:25:49.243Z,2.00
2017-09-12T00:25:53.505Z,2.13
2017-09-12T00:25:57.714Z,2.15
2017-09-12T00:26:01.937Z,2.20
2017-09-12T00:26:06.182Z,2.20
2017-09-12T00:26:10.431Z,2.15
2017-09-12T00:26:15.424Z,2.20
2017-09-12T00:26:19.648Z,2.27
2017-09-12T00:26:23.889Z,2.30
2017-09-12T00:26:28.136Z,2.30
2017-09-12T00:26:32.366Z,2.30
2017-09-12T00:26:36.602Z,2.30
2017-09-12T00:26:40.842Z,2.30
2017-09-12T00:26:45.841Z,2.40
2017-09-12T00:26:50.073Z,2.40
2017-09-12T00:26:54.315Z,2.45
2017-09-12T00:26:58.540Z,2.50
2017-09-12T00:27:02.764Z,2.50
2017-09-12T00:27:07.757Z,2.60
2017-09-12T00:27:11.999Z,2.53
2017-09-12T00:27:16.242Z,2.40
2017-09-12T00:27:20.473Z,2.50
2017-09-12T00:27:25.494Z,2.55
2017-09-12T00:27:30.476Z,2.60
2017-09-12T00:27:34.714Z,2.67
2017-09-12T00:27:39.700Z,2.77
2017-09-12T00:27:43.936Z,2.70
2017-09-12T00:27:48.169Z,2.70
2017-09-12T00:27:52.426Z,2.70
2017-09-12T00:27:57.428Z,2.60
2017-09-12T00:28:01.646Z,2.60
2017-09-12T00:28:06.657Z,2.57
2017-09-12T00:28:11.651Z,2.60
2017-09-12T00:28:15.902Z,2.60
2017-09-12T00:28:20.139Z,2.60
2017-09-12T00:28:24.370Z,2.50
2017-09-12T00:28:29.384Z,2.47
2017-09-12T00:28:33.623Z,2.50
2017-09-12T00:28:37.871Z,2.45
2017-09-12T00:28:42.113Z,2.60
2017-09-12T00:28:46.341Z,2.60
2017-09-12T00:28:50.582Z,2.60
2017-09-12T00:28:54.808Z,2.75
2017-09-12T00:28:59.054Z,2.80
2017-09-12T00:29:03.290Z,2.85
2017-09-12T00:29:08.299Z,2.93
2017-09-12T00:29:12.555Z,3.00
2017-09-12T00:29:16.787Z,3.00
2017-09-12T00:29:21.018Z,3.00
2017-09-12T00:29:26.012Z,3.10
2017-09-12T00:29:30.266Z,3.13
2017-09-12T00:29:34.497Z,3.10
2017-09-12T00:29:38.740Z,3.00
2017-09-12T00:29:43.751Z,3.00
2017-09-12T00:29:48.745Z,2.90
2017-09-12T00:29:52.990Z,2.87
2017-09-12T00:29:57.248Z,2.70
2017-09-12T00:30:01.492Z,2.60
2017-09-12T00:30:05.722Z,2.50
2017-09-12T00:30:09.962Z,2.40
2017-09-12T00:30:14.946Z,2.40
2017-09-12T00:30:19.183Z,2.57
2017-09-12T00:30:24.193Z,2.50
2017-09-12T00:30:29.192Z,2.50
2017-09-12T00:30:33.446Z,2.43
2017-09-12T00:30:37.668Z,2.50
2017-09-12T00:30:41.896Z,2.45
2017-09-12T00:30:46.961Z,2.47
2017-09-12T00:30:51.207Z,2.50
2017-09-12T00:30:55.449Z,2.60
2017-09-12T00:30:59.668Z,2.60
2017-09-12T00:31:03.910Z,2.60
2017-09-12T00:31:08.159Z,2.67
2017-09-12T00:31:12.380Z,2.80
2017-09-12T00:31:16.612Z,2.80
2017-09-12T00:31:20.844Z,2.70
2017-09-12T00:31:25.097Z,2.80
2017-09-12T00:31:29.321Z,2.80
2017-09-12T00:31:34.457Z,2.90
2017-09-12T00:31:39.462Z,2.93
2017-09-12T00:31:43.715Z,2.93
2017-09-12T00:31:47.940Z,2.87
2017-09-12T00:31:52.165Z,2.80
2017-09-12T00:31:57.154Z,2.80
2017-09-12T00:32:01.411Z,2.77
2017-09-12T00:32:05.632Z,2.70
2017-09-12T00:32:09.893Z,2.70
2017-09-12T00:32:14.901Z,2.70
2017-09-12T00:32:19.898Z,2.70
2017-09-12T00:32:24.128Z,2.57
2017-09-12T00:32:28.382Z,2.50
2017-09-12T00:32:33.392Z,2.50
2017-09-12T00:32:37.631Z,2.43
2017-09-12T00:32:41.872Z,2.40
2017-09-12T00:32:46.122Z,2.50
2017-09-12T00:32:50.360Z,2.40
2017-09-12T00:32:54.610Z,2.50
2017-09-12T00:32:58.863Z,2.40
2017-09-12T00:33:03.114Z,2.50
2017-09-12T00:33:07.336Z,2.50
2017-09-12T00:33:12.330Z,2.40
2017-09-12T00:33:16.579Z,2.40
2017-09-12T00:33:20.814Z,2.50
2017-09-12T00:33:25.052Z,2.60
2017-09-12T00:33:30.040Z,2.60
2017-09-12T00:33:34.310Z,2.50
2017-09-12T00:33:38.534Z,2.57
2017-09-12T00:33:42.765Z,2.60
2017-09-12T00:33:48.037Z,2.70
2017-09-12T00:33:52.267Z,2.70
2017-09-12T00:33:56.531Z,2.70
2017-09-12T00:34:00.847Z,2.80
2017-09-12T00:34:05.078Z,2.80
2017-09-12T00:34:09.320Z,2.80
2017-09-12T00:34:13.550Z,2.90
2017-09-12T00:34:17.764Z,2.80
2017-09-12T00:34:22.015Z,2.70
2017-09-12T00:34:26.245Z,2.70
2017-09-12T00:34:30.489Z,2.75
2017-09-12T00:34:34.726Z,2.80
2017-09-12T00:34:38.949Z,2.70
2017-09-12T00:34:43.188Z,2.60
2017-09-12T00:34:48.199Z,2.60
2017-09-12T00:34:52.420Z,2.70
2017-09-12T00:34:56.662Z,2.80
2017-09-12T00:35:00.898Z,2.70
2017-09-12T00:35:05.133Z,2.70
2017-09-12T00:35:09.364Z,2.60
2017-09-12T00:35:13.586Z,2.60
2017-09-12T00:35:17.814Z,2.65
2017-09-12T00:35:22.802Z,2.70
2017-09-12T00:35:27.051Z,2.70
2017-09-12T00:35:31.269Z,2.70
2017-09-12T00:35:35.499Z,2.70
2017-09-12T00:35:39.742Z,2.85
2017-09-12T00:35:43.987Z,3.00
2017-09-12T00:35:48.218Z,3.00
2017-09-12T00:35:53.218Z,2.90
2017-09-12T00:35:57.515Z,2.90
2017-09-12T00:36:01.744Z,2.90
2017-09-12T00:36:06.740Z,2.80
2017-09-12T00:36:10.976Z,2.80
2017-09-12T00:36:15.210Z,2.80
2017-09-12T00:36:19.451Z,2.90
2017-09-12T00:36:24.441Z,2.90
2017-09-12T00:36:28.683Z,2.87
2017-09-12T00:36:33.703Z,2.80
2017-09-12T00:36:38.722Z,2.80
2017-09-12T00:36:43.734Z,2.80
2017-09-12T00:36:48.747Z,2.80
2017-09-12T00:36:53.749Z,2.83
2017-09-12T00:36:57.983Z,2.80
2017-09-12T00:37:02.219Z,2.80
2017-09-12T00:37:06.448Z,2.85
2017-09-12T00:37:10.685Z,2.90
2017-09-12T00:37:14.908Z,2.90
2017-09-12T00:37:19.137Z,2.90
2017-09-12T00:37:23.375Z,2.90
2017-09-12T00:37:27.618Z,3.03
2017-09-12T00:37:31.840Z,3.20
2017-09-12T00:37:36.075Z,3.10
2017-09-12T00:37:40.315Z,3.00
2017-09-12T00:37:44.566Z,2.83
2017-09-12T00:37:49.586Z,2.80
2017-09-12T00:37:54.644Z,2.70
2017-09-12T00:37:58.894Z,2.70
2017-09-12T00:38:03.946Z,2.65
2017-09-12T00:38:08.152Z,2.60
2017-09-12T00:38:12.408Z,2.53
2017-09-12T00:38:16.629Z,2.55
2017-09-12T00:38:20.856Z,2.50
2017-09-12T00:38:25.088Z,2.50
2017-09-12T00:38:29.341Z,2.23
2017-09-12T00:38:33.589Z,2.20
2017-09-12T00:38:37.815Z,2.20
2017-09-12T00:38:42.808Z,2.20
2017-09-12T00:38:47.037Z,2.20
2017-09-12T00:38:52.033Z,2.20
2017-09-12T00:38:56.287Z,2.20
2017-09-12T00:39:00.514Z,2.20
2017-09-12T00:39:04.750Z,2.40
2017-09-12T00:39:09.740Z,2.43
2017-09-12T00:39:13.968Z,2.50
2017-09-12T00:39:18.974Z,2.40
2017-09-12T00:39:23.983Z,2.40
2017-09-12T00:39:28.210Z,2.40
2017-09-12T00:39:32.437Z,2.30
2017-09-12T00:39:36.668Z,2.30
2017-09-12T00:39:40.904Z,2.30
2017-09-12T00:39:45.896Z,2.40
2017-09-12T00:39:50.127Z,2.50
2017-09-12T00:39:54.361Z,2.50
2017-09-12T00:39:58.599Z,2.50
2017-09-12T00:40:02.825Z,2.60
2017-09-12T00:40:07.062Z,2.50
2017-09-12T00:40:11.292Z,2.55
2017-09-12T00:40:15.507Z,2.60
2017-09-12T00:40:20.514Z,2.60
2017-09-12T00:40:24.752Z,2.60
2017-09-12T00:40:28.993Z,2.70
2017-09-12T00:40:33.216Z,2.70
2017-09-12T00:40:37.445Z,2.80
2017-09-12T00:40:41.668Z,2.90
2017-09-12T00:40:46.242Z,2.80
2017-09-12T00:40:51.246Z,2.80
2017-09-12T00:40:56.245Z,2.90
2017-09-12T00:41:00.484Z,2.77
2017-09-12T00:41:04.714Z,2.63
2017-09-12T00:41:08.959Z,2.80
2017-09-12T00:41:13.200Z,2.70
2017-09-12T00:41:17.422Z,2.80
2017-09-12T00:41:21.661Z,2.80
2017-09-12T00:41:26.678Z,2.80
2017-09-12T00:41:30.900Z,2.70
2017-09-12T00:41:35.124Z,2.70
2017-09-12T00:41:39.362Z,2.60
2017-09-12T00:41:43.622Z,2.60
2017-09-12T00:41:47.844Z,2.70
2017-09-12T00:41:52.065Z,2.50
2017-09-12T00:41:56.304Z,2.53
2017-09-12T00:42:00.554Z,2.65
2017-09-12T00:42:04.803Z,2.70
2017-09-12T00:42:09.027Z,2.60
2017-09-12T00:42:13.265Z,2.60
2017-09-12T00:42:17.510Z,2.60
2017-09-12T00:42:21.751Z,2.70
2017-09-12T00:42:25.976Z,2.65
2017-09-12T00:42:30.966Z,2.60
2017-09-12T00:42:35.196Z,2.60
2017-09-12T00:42:40.189Z,2.60
2017-09-12T00:42:44.434Z,2.70
2017-09-12T00:42:48.674Z,2.80
2017-09-12T00:42:52.920Z,2.80
2017-09-12T00:42:57.971Z,2.70
2017-09-12T00:43:02.937Z,2.70
2017-09-12T00:43:07.163Z,2.70
2017-09-12T00:43:11.398Z,2.70
2017-09-12T00:43:15.644Z,2.70
2017-09-12T00:43:19.864Z,2.60
2017-09-12T00:43:24.114Z,2.57
2017-09-12T00:43:28.348Z,2.60
2017-09-12T00:43:33.347Z,2.70
2017-09-12T00:43:37.587Z,2.70
2017-09-12T00:43:41.821Z,2.70
2017-09-12T00:43:46.074Z,2.50
2017-09-12T00:43:51.072Z,2.40
2017-09-12T00:43:56.099Z,2.50
2017-09-12T00:44:01.113Z,2.40
2017-09-12T00:44:06.104Z,2.30
2017-09-12T00:44:10.342Z,2.30
2017-09-12T00:44:15.327Z,2.30
2017-09-12T00:44:19.552Z,2.30
2017-09-12T00:44:24.540Z,2.40
2017-09-12T00:44:28.779Z,2.30
2017-09-12T00:44:33.017Z,2.30
2017-09-12T00:44:37.240Z,2.20
2017-09-12T00:44:41.465Z,2.20
2017-09-12T00:44:46.492Z,2.20
2017-09-12T00:44:51.492Z,2.37
2017-09-12T00:44:55.724Z,2.47
2017-09-12T00:44:59.949Z,2.50
2017-09-12T00:45:04.188Z,2.50
2017-09-12T00:45:08.427Z,2.60
2017-09-12T00:45:12.658Z,2.63
2017-09-12T00:45:16.884Z,2.70
2017-09-12T00:45:21.120Z,2.65
2017-09-12T00:45:25.363Z,2.65
2017-09-12T00:45:29.606Z,2.80
2017-09-12T00:45:34.622Z,2.80
2017-09-12T00:45:39.675Z,2.80
2017-09-12T00:45:43.914Z,2.90
2017-09-12T00:45:48.146Z,2.80
2017-09-12T00:45:53.159Z,2.70
2017-09-12T00:45:58.166Z,2.70
2017-09-12T00:46:02.435Z,2.77
2017-09-12T00:46:06.712Z,2.80
2017-09-12T00:46:11.681Z,2.90
2017-09-12T00:46:15.909Z,2.90
2017-09-12T00:46:20.146Z,2.90
2017-09-12T00:46:24.395Z,2.87
2017-09-12T00:46:29.415Z,2.70
2017-09-12T00:46:34.425Z,2.70
2017-09-12T00:46:39.431Z,2.80
2017-09-12T00:46:43.656Z,2.90
2017-09-12T00:46:47.881Z,2.90
2017-09-12T00:46:52.108Z,2.90
2017-09-12T00:46:56.357Z,2.80
2017-09-12T00:47:00.669Z,2.80
2017-09-12T00:47:04.886Z,2.75
2017-09-12T00:47:09.134Z,2.67
2017-09-12T00:47:13.356Z,2.60
2017-09-12T00:47:17.594Z,2.60
2017-09-12T00:47:21.821Z,2.50
2017-09-12T00:47:26.077Z,2.50
2017-09-12T00:47:30.298Z,2.50
2017-09-12T00:47:34.538Z,2.50
2017-09-12T00:47:39.539Z,2.45
2017-09-12T00:47:43.761Z,2.30
2017-09-12T00:47:48.763Z,2.40
2017-09-12T00:47:53.016Z,2.40
2017-09-12T00:47:57.263Z,2.40
2017-09-12T00:48:01.543Z,2.35
2017-09-12T00:48:05.782Z,2.30
2017-09-12T00:48:10.786Z,2.20
2017-09-12T00:48:15.020Z,2.30
2017-09-12T00:48:19.269Z,2.40
2017-09-12T00:48:23.492Z,2.50
2017-09-12T00:48:28.494Z,2.63
2017-09-12T00:48:32.739Z,2.60
2017-09-12T00:48:36.964Z,2.50
2017-09-12T00:48:41.188Z,2.50
2017-09-12T00:48:45.416Z,2.60
2017-09-12T00:48:50.418Z,2.60
2017-09-12T00:48:54.656Z,2.60
2017-09-12T00:48:58.871Z,2.75
2017-09-12T00:49:03.098Z,2.85
2017-09-12T00:49:07.327Z,2.90
2017-09-12T00:49:12.319Z,2.90
2017-09-12T00:49:16.567Z,2.80
2017-09-12T00:49:20.803Z,2.80
2017-09-12T00:49:25.021Z,2.70
2017-09-12T00:49:29.262Z,2.70
2017-09-12T00:49:33.498Z,2.70
2017-09-12T00:49:37.723Z,2.80
2017-09-12T00:49:41.947Z,2.75
2017-09-12T00:49:46.958Z,2.60
2017-09-12T00:49:51.980Z,2.60
2017-09-12T00:49:56.986Z,2.60
2017-09-12T00:50:01.306Z,2.40
2017-09-12T00:50:06.313Z,2.30
2017-09-12T00:50:11.300Z,2.30
2017-09-12T00:50:15.552Z,2.30
2017-09-12T00:50:19.772Z,2.30
2017-09-12T00:50:24.005Z,2.20
2017-09-12T00:50:28.254Z,2.23
2017-09-12T00:50:32.484Z,2.30
2017-09-12T00:50:36.726Z,2.30
2017-09-12T00:50:41.734Z,2.35
2017-09-12T00:50:46.753Z,2.40
2017-09-12T00:50:50.976Z,2.50
2017-09-12T00:50:55.224Z,2.50
2017-09-12T00:50:59.444Z,2.50
2017-09-12T00:51:03.680Z,2.50
2017-09-12T00:51:07.909Z,2.50
2017-09-12T00:51:12.163Z,2.70
2017-09-12T00:51:17.155Z,2.80
2017-09-12T00:51:21.388Z,2.90
2017-09-12T00:51:26.390Z,2.80
2017-09-12T00:51:30.607Z,2.77
2017-09-12T00:51:34.847Z,2.70
2017-09-12T00:51:39.090Z,2.77
2017-09-12T00:51:44.102Z,2.75
2017-09-12T00:51:48.330Z,2.77
2017-09-12T00:51:53.335Z,2.70
2017-09-12T00:51:57.566Z,2.80
2017-09-12T00:52:01.807Z,2.90
2017-09-12T00:52:06.052Z,2.90
2017-09-12T00:52:10.267Z,2.80
2017-09-12T00:52:14.493Z,2.80
2017-09-12T00:52:19.499Z,2.70
2017-09-12T00:52:24.493Z,2.60
2017-09-12T00:52:28.750Z,2.70
2017-09-12T00:52:32.980Z,2.80
2017-09-12T00:52:37.222Z,2.65
2017-09-12T00:52:41.462Z,2.60
2017-09-12T00:52:46.475Z,2.50
2017-09-12T00:52:50.716Z,2.50
2017-09-12T00:52:55.023Z,2.40
2017-09-12T00:52:59.305Z,2.30
2017-09-12T00:53:03.542Z,2.20
2017-09-12T00:53:07.790Z,2.23
2017-09-12T00:53:12.790Z,2.30
2017-09-12T00:53:17.819Z,2.33
2017-09-12T00:53:22.818Z,2.50
2017-09-12T00:53:27.057Z,2.40
2017-09-12T00:53:32.042Z,2.40
2017-09-12T00:53:36.270Z,2.50
2017-09-12T00:53:40.531Z,2.50
2017-09-12T00:53:44.759Z,2.60
2017-09-12T00:53:49.748Z,2.60
2017-09-12T00:53:53.981Z,2.60
2017-09-12T00:53:58.995Z,2.60
2017-09-12T00:54:04.004Z,2.57
2017-09-12T00:54:08.997Z,2.47
2017-09-12T00:54:13.233Z,2.40
2017-09-12T00:54:18.242Z,2.43
2017-09-12T00:54:23.242Z,2.37
2017-09-12T00:54:27.473Z,2.40
2017-09-12T00:54:31.702Z,2.30
2017-09-12T00:54:36.016Z,2.30
2017-09-12T00:54:40.242Z,2.30
2017-09-12T00:54:44.478Z,2.30
2017-09-12T00:54:48.712Z,2.30
2017-09-12T00:54:52.954Z,2.40
2017-09-12T00:54:57.955Z,2.40
2017-09-12T00:55:02.223Z,2.53
2017-09-12T00:55:06.453Z,2.60
2017-09-12T00:55:10.692Z,2.60
2017-09-12T00:55:14.930Z,2.50
2017-09-12T00:55:19.173Z,2.57
2017-09-12T00:55:24.176Z,2.50
2017-09-12T00:55:28.411Z,2.50
2017-09-12T00:55:32.637Z,2.60
2017-09-12T00:55:36.860Z,2.60
2017-09-12T00:55:41.096Z,2.50
2017-09-12T00:55:46.125Z,2.50
2017-09-12T00:55:50.344Z,2.60
2017-09-12T00:55:54.590Z,2.60
2017-09-12T00:55:58.813Z,2.70
2017-09-12T00:56:03.817Z,2.60
2017-09-12T00:56:08.047Z,2.50
2017-09-12T00:56:12.280Z,2.50
2017-09-12T00:56:16.546Z,2.55
2017-09-12T00:56:20.786Z,2.60
2017-09-12T00:56:25.021Z,2.70
2017-09-12T00:56:30.033Z,2.75
2017-09-12T00:56:34.283Z,2.90
2017-09-12T00:56:38.501Z,3.00
2017-09-12T00:56:42.748Z,2.93
2017-09-12T00:56:47.734Z,2.90
2017-09-12T00:56:51.972Z,2.90
2017-09-12T00:56:56.211Z,2.80
2017-09-12T00:57:00.491Z,2.70
2017-09-12T00:57:05.461Z,2.80
2017-09-12T00:57:09.692Z,2.80
2017-09-12T00:57:13.934Z,2.80
2017-09-12T00:57:18.173Z,2.80
2017-09-12T00:57:22.398Z,2.80
2017-09-12T00:57:26.650Z,2.90
2017-09-12T00:57:30.880Z,2.80
2017-09-12T00:57:35.890Z,2.65
2017-09-12T00:57:40.109Z,2.60
2017-09-12T00:57:44.332Z,2.70
2017-09-12T00:57:48.576Z,2.70
2017-09-12T00:57:52.831Z,2.60
2017-09-12T00:57:57.048Z,2.75
2017-09-12T00:58:01.290Z,2.75
2017-09-12T00:58:06.288Z,2.60
2017-09-12T00:58:10.550Z,2.70
2017-09-12T00:58:14.773Z,2.70
2017-09-12T00:58:19.760Z,2.80
2017-09-12T00:58:23.987Z,2.70
2017-09-12T00:58:28.230Z,2.70
2017-09-12T00:58:33.228Z,2.67
2017-09-12T00:58:37.460Z,2.80
2017-09-12T00:58:41.700Z,2.90
2017-09-12T00:58:45.920Z,2.85
2017-09-12T00:58:50.160Z,2.90
2017-09-12T00:58:54.406Z,2.90